createdAt,value
2018-08-21T00:00:59.705Z,20.51
2018-08-21T00:01:59.729Z,20.5
2018-08-21T00:02:59.757Z,20.47
2018-08-21T00:04:14.442Z,20.39
2018-08-21T00:04:59.547Z,20.43
2018-08-21T00:05:59.832Z,20.48
2018-08-21T00:06:59.886Z,20.55
2018-08-21T00:07:59.616Z,20.55
2018-08-21T00:08:59.908Z,20.55
2018-08-21T00:09:59.668Z,20.59
2018-08-21T00:10:59.433Z,20.59
2018-08-21T00:11:59.972Z,20.66
2018-08-21T00:12:59.739Z,20.59
2018-08-21T00:14:00.021Z,20.51
2018-08-21T00:17:00.098Z,20.48
2018-08-21T00:18:00.120Z,20.61
2018-08-21T00:19:00.143Z,20.52
2018-08-21T00:20:00.166Z,20.51
2018-08-21T00:20:59.940Z,20.58
2018-08-21T00:22:00.231Z,20.54
2018-08-21T00:23:00.245Z,20.5
2018-08-21T00:24:00.010Z,20.58
2018-08-21T00:24:59.775Z,20.61
2018-08-21T00:26:00.314Z,20.59
2018-08-21T00:27:00.337Z,20.61
2018-08-21T00:28:00.365Z,20.66
2018-08-21T00:29:15.049Z,20.61
2018-08-21T00:31:15.153Z,20.64
2018-08-21T00:32:00.461Z,20.62
2018-08-21T00:33:00.485Z,20.61
2018-08-21T00:34:00.508Z,20.61
2018-08-21T00:35:00.536Z,20.57
2018-08-21T00:36:00.559Z,20.59
2018-08-21T00:37:00.070Z,20.61
2018-08-21T00:38:00.611Z,20.67
2018-08-21T00:39:15.292Z,20.57
2018-08-21T00:40:00.661Z,20.61
2018-08-21T00:41:00.681Z,20.64
2018-08-21T00:42:00.707Z,20.67
2018-08-21T00:43:00.729Z,20.61
2018-08-21T00:44:00.497Z,20.51
2018-08-21T00:45:15.440Z,20.55
2018-08-21T00:46:00.802Z,20.61
2018-08-21T00:47:00.833Z,20.57
2018-08-21T00:48:00.854Z,20.57
2018-08-21T00:49:00.876Z,20.61
2018-08-21T00:50:00.643Z,20.61
2018-08-21T00:52:00.693Z,20.64
2018-08-21T00:53:15.635Z,20.66
2018-08-21T00:54:01.001Z,20.64
2018-08-21T00:55:01.027Z,20.64
2018-08-21T00:56:00.788Z,20.62
2018-08-21T00:57:01.087Z,20.57
2018-08-21T00:58:01.095Z,20.61
2018-08-21T00:59:01.120Z,20.62
2018-08-21T01:00:01.143Z,20.61
2018-08-21T01:01:15.835Z,20.52
2018-08-21T01:02:01.200Z,20.58
2018-08-21T01:03:01.336Z,20.57
2018-08-21T01:04:01.242Z,20.52
2018-08-21T01:05:15.932Z,20.57
2018-08-21T01:06:01.029Z,20.5
2018-08-21T01:07:01.320Z,20.52
2018-08-21T01:08:01.084Z,20.5
2018-08-21T01:09:01.362Z,20.54
2018-08-21T01:10:16.051Z,20.39
2018-08-21T01:11:01.412Z,20.33
2018-08-21T01:12:01.435Z,20.38
2018-08-21T01:14:01.227Z,20.26
2018-08-21T01:15:01.509Z,20.32
2018-08-21T01:16:01.536Z,20.28
2018-08-21T01:17:16.218Z,20.28
2018-08-21T01:18:01.583Z,20.21
2018-08-21T01:19:01.611Z,20.33
2018-08-21T01:20:01.636Z,20.23
2018-08-21T01:21:01.662Z,20.11
2018-08-21T01:22:01.679Z,20.18
2018-08-21T01:23:01.701Z,20.14
2018-08-21T01:24:01.468Z,20.11
2018-08-21T01:25:01.765Z,20.08
2018-08-21T01:26:01.520Z,20.08
2018-08-21T01:27:01.541Z,20.08
2018-08-21T01:28:01.569Z,20.1
2018-08-21T01:29:01.847Z,20.05
2018-08-21T01:30:01.883Z,20.03
2018-08-21T01:31:01.896Z,20.01
2018-08-21T01:32:16.588Z,19.98
2018-08-21T01:33:01.690Z,20.01
2018-08-21T01:34:01.713Z,20.06
2018-08-21T01:35:01.998Z,20.03
2018-08-21T01:36:01.764Z,20.02
2018-08-21T01:37:02.046Z,20.11
2018-08-21T01:38:01.810Z,20.11
2018-08-21T01:39:02.093Z,19.98
2018-08-21T01:40:02.115Z,20.01
2018-08-21T01:41:16.802Z,20.02
2018-08-21T01:42:02.164Z,19.98
2018-08-21T01:43:16.593Z,19.99
2018-08-21T01:44:02.216Z,20.02
2018-08-21T01:45:01.981Z,19.98
2018-08-21T01:46:02.260Z,19.98
2018-08-21T01:47:02.285Z,20.02
2018-08-21T01:48:02.054Z,19.99
2018-08-21T01:49:02.342Z,19.96
2018-08-21T01:51:02.392Z,19.99
2018-08-21T01:52:02.411Z,19.96
2018-08-21T01:53:02.176Z,19.95
2018-08-21T01:54:02.459Z,20.02
2018-08-21T01:55:02.481Z,19.98
2018-08-21T01:56:02.505Z,19.96
2018-08-21T01:57:17.190Z,19.99
2018-08-21T01:58:02.549Z,19.99
2018-08-21T01:59:02.604Z,20.02
2018-08-21T02:00:02.607Z,20.02
2018-08-21T02:01:02.624Z,20.01
2018-08-21T02:02:02.650Z,19.98
2018-08-21T02:03:02.671Z,19.91
2018-08-21T02:04:17.366Z,19.88
2018-08-21T02:05:02.721Z,19.94
2018-08-21T02:06:02.495Z,19.92
2018-08-21T02:07:02.784Z,19.96
2018-08-21T02:09:02.819Z,19.94
2018-08-21T02:10:02.841Z,19.94
2018-08-21T02:11:02.868Z,19.92
2018-08-21T02:12:02.897Z,19.91
2018-08-21T02:13:02.912Z,19.88
2018-08-21T02:14:02.947Z,19.84
2018-08-21T02:15:02.964Z,19.94
2018-08-21T02:16:02.987Z,19.84
2018-08-21T02:17:03.011Z,19.81
2018-08-21T02:18:03.033Z,19.86
2018-08-21T02:20:17.489Z,19.73
2018-08-21T02:21:03.112Z,19.8
2018-08-21T02:22:03.134Z,19.77
2018-08-21T02:24:03.179Z,19.77
2018-08-21T02:25:03.205Z,19.8
2018-08-21T02:26:03.229Z,19.77
2018-08-21T02:27:03.258Z,19.8
2018-08-21T02:28:03.281Z,19.78
2018-08-21T02:29:03.340Z,19.87
2018-08-21T02:30:03.325Z,19.71
2018-08-21T02:31:03.347Z,19.74
2018-08-21T02:32:03.899Z,19.71
2018-08-21T02:33:03.403Z,19.77
2018-08-21T02:34:03.422Z,19.61
2018-08-21T02:35:03.449Z,19.59
2018-08-21T02:36:18.129Z,19.59
2018-08-21T02:37:03.495Z,19.65
2018-08-21T02:38:03.520Z,19.59
2018-08-21T02:39:03.545Z,19.68
2018-08-21T02:40:03.568Z,19.73
2018-08-21T02:41:03.333Z,19.71
2018-08-21T02:42:03.363Z,19.63
2018-08-21T02:43:03.644Z,19.63
2018-08-21T02:44:03.405Z,19.56
2018-08-21T02:45:03.689Z,19.56
2018-08-21T02:46:03.713Z,19.68
2018-08-21T02:47:03.483Z,19.76
2018-08-21T02:48:03.871Z,19.68
2018-08-21T02:50:03.548Z,19.65
2018-08-21T02:51:03.831Z,19.68
2018-08-21T02:52:18.517Z,19.63
2018-08-21T02:53:03.884Z,19.56
2018-08-21T02:54:03.648Z,19.59
2018-08-21T02:55:03.669Z,19.63
2018-08-21T02:56:03.692Z,19.56
2018-08-21T02:57:03.983Z,19.62
2018-08-21T02:58:04.002Z,19.68
2018-08-21T02:59:04.091Z,19.58
2018-08-21T03:00:18.711Z,19.58
2018-08-21T03:01:03.823Z,19.59
2018-08-21T03:02:04.093Z,19.59
2018-08-21T03:03:03.865Z,19.47
2018-08-21T03:04:04.146Z,19.58
2018-08-21T03:06:04.192Z,19.47
2018-08-21T03:07:18.880Z,19.41
2018-08-21T03:08:03.983Z,19.36
2018-08-21T03:09:04.265Z,19.37
2018-08-21T03:10:04.298Z,19.36
2018-08-21T03:11:04.156Z,19.39
2018-08-21T03:12:04.092Z,19.37
2018-08-21T03:13:04.106Z,19.36
2018-08-21T03:14:04.385Z,19.39
2018-08-21T03:15:19.072Z,19.37
2018-08-21T03:16:04.179Z,19.31
2018-08-21T03:17:18.860Z,19.28
2018-08-21T03:18:04.484Z,19.28
2018-08-21T03:19:04.509Z,19.31
2018-08-21T03:20:04.529Z,19.16
2018-08-21T03:21:04.304Z,19.21
2018-08-21T03:22:04.322Z,19.28
2018-08-21T03:24:04.641Z,19.29
2018-08-21T03:25:04.657Z,19.37
2018-08-21T03:26:04.419Z,19.41
2018-08-21T03:27:04.697Z,19.31
2018-08-21T03:28:04.466Z,19.41
2018-08-21T03:29:19.421Z,19.36
2018-08-21T03:30:04.255Z,19.39
2018-08-21T03:31:04.544Z,19.28
2018-08-21T03:32:04.582Z,19.32
2018-08-21T03:33:19.244Z,19.28
2018-08-21T03:34:04.351Z,19.32
2018-08-21T03:35:19.551Z,19.26
2018-08-21T03:36:04.655Z,19.31
2018-08-21T03:37:04.936Z,19.28
2018-08-21T03:38:04.704Z,19.18
2018-08-21T03:39:19.650Z,19.26
2018-08-21T03:40:04.750Z,19.21
2018-08-21T03:41:04.521Z,19.22
2018-08-21T03:42:05.057Z,19.06
2018-08-21T03:43:05.132Z,19.1
2018-08-21T03:44:04.845Z,19
2018-08-21T03:45:04.873Z,19.07
2018-08-21T03:46:19.815Z,19
2018-08-21T03:47:05.177Z,19
2018-08-21T03:48:05.042Z,18.98
2018-08-21T03:49:19.885Z,18.98
2018-08-21T03:50:04.989Z,19.04
2018-08-21T03:51:04.757Z,18.99
2018-08-21T03:52:05.304Z,19
2018-08-21T03:53:05.325Z,19.06
2018-08-21T03:54:05.345Z,19.02
2018-08-21T03:55:20.032Z,19.06
2018-08-21T03:56:05.400Z,19.06
2018-08-21T03:57:05.423Z,19.06
2018-08-21T03:58:05.180Z,18.94
2018-08-21T03:59:05.462Z,19.07
2018-08-21T04:00:20.253Z,19
2018-08-21T04:01:05.511Z,19.07
2018-08-21T04:02:05.547Z,18.95
2018-08-21T04:03:05.041Z,18.95
2018-08-21T04:04:20.244Z,18.9
2018-08-21T04:05:05.784Z,18.94
2018-08-21T04:06:05.382Z,18.95
2018-08-21T04:07:05.401Z,18.88
2018-08-21T04:08:05.681Z,18.87
2018-08-21T04:09:05.707Z,18.87
2018-08-21T04:10:05.470Z,18.92
2018-08-21T04:11:20.409Z,18.94
2018-08-21T04:12:05.513Z,18.88
2018-08-21T04:13:05.800Z,18.92
2018-08-21T04:14:05.824Z,18.95
2018-08-21T04:15:05.599Z,18.91
2018-08-21T04:16:05.869Z,18.99
2018-08-21T04:17:05.892Z,19.06
2018-08-21T04:18:05.917Z,18.9
2018-08-21T04:19:05.944Z,18.85
2018-08-21T04:20:05.966Z,18.85
2018-08-21T04:21:20.390Z,18.9
2018-08-21T04:22:06.019Z,18.85
2018-08-21T04:23:06.038Z,18.88
2018-08-21T04:24:06.061Z,18.9
2018-08-21T04:25:06.085Z,19
2018-08-21T04:26:05.848Z,18.92
2018-08-21T04:27:20.792Z,18.88
2018-08-21T04:28:06.159Z,18.91
2018-08-21T04:29:06.177Z,18.9
2018-08-21T04:30:06.202Z,18.84
2018-08-21T04:31:05.711Z,18.84
2018-08-21T04:32:05.994Z,18.9
2018-08-21T04:33:05.767Z,18.95
2018-08-21T04:34:20.960Z,18.9
2018-08-21T04:35:20.984Z,18.85
2018-08-21T04:36:06.090Z,18.88
2018-08-21T04:37:06.113Z,18.88
2018-08-21T04:38:06.568Z,18.85
2018-08-21T04:39:06.418Z,18.84
2018-08-21T04:40:06.184Z,18.72
2018-08-21T04:41:06.466Z,18.67
2018-08-21T04:42:20.896Z,18.76
2018-08-21T04:43:06.255Z,18.58
2018-08-21T04:44:06.544Z,18.58
2018-08-21T04:45:06.312Z,18.62
2018-08-21T04:46:06.327Z,18.52
2018-08-21T04:47:06.093Z,18.55
2018-08-21T04:48:06.635Z,18.62
2018-08-21T04:49:06.667Z,18.69
2018-08-21T04:50:06.163Z,18.75
2018-08-21T04:51:06.447Z,18.7
2018-08-21T04:52:06.724Z,18.75
2018-08-21T04:53:06.503Z,18.66
2018-08-21T04:54:06.777Z,18.73
2018-08-21T04:55:06.805Z,18.76
2018-08-21T04:56:06.565Z,18.91
2018-08-21T04:57:06.845Z,19.16
2018-08-21T04:58:06.880Z,19.55
2018-08-21T04:59:07.070Z,19.76
2018-08-21T05:00:06.686Z,19.98
2018-08-21T05:01:06.686Z,20.08
2018-08-21T05:02:06.710Z,20.03
2018-08-21T05:03:06.735Z,20.11
2018-08-21T05:04:06.512Z,20.06
2018-08-21T05:05:21.705Z,20.66
2018-08-21T05:06:07.065Z,20.72
2018-08-21T05:07:06.832Z,20.95
2018-08-21T05:08:07.125Z,21.22
2018-08-21T05:09:07.142Z,21.44
2018-08-21T05:10:07.167Z,21.49
2018-08-21T05:11:07.191Z,21.74
2018-08-21T05:12:07.248Z,21.58
2018-08-21T05:13:07.243Z,22.07
2018-08-21T05:14:21.928Z,22.27
2018-08-21T05:15:07.036Z,22
2018-08-21T05:16:07.061Z,21.9
2018-08-21T05:19:07.141Z,22.49
2018-08-21T05:20:07.167Z,22.54
2018-08-21T05:21:07.468Z,22.24
2018-08-21T05:22:07.487Z,22.47
2018-08-21T05:23:07.510Z,22.49
2018-08-21T05:24:07.532Z,22.8
2018-08-21T05:25:07.300Z,22.51
2018-08-21T05:26:07.591Z,22.46
2018-08-21T05:27:07.613Z,22.33
2018-08-21T05:28:07.382Z,22.25
2018-08-21T05:29:07.670Z,22.15
2018-08-21T05:30:22.357Z,21.96
2018-08-21T05:31:07.733Z,22.27
2018-08-21T05:32:07.499Z,22.07
2018-08-21T05:34:07.805Z,22.09
2018-08-21T05:35:07.575Z,22.52
2018-08-21T05:36:07.857Z,22.55
2018-08-21T05:37:07.892Z,22.76
2018-08-21T05:38:07.657Z,22.91
2018-08-21T05:39:07.940Z,23.16
2018-08-21T05:40:22.633Z,23.01
2018-08-21T05:41:07.747Z,23.12
2018-08-21T05:42:08.031Z,23.15
2018-08-21T05:43:08.069Z,23
2018-08-21T05:44:08.099Z,22.92
2018-08-21T05:45:07.857Z,23.32
2018-08-21T05:46:22.806Z,23.55
2018-08-21T05:47:07.658Z,23.54
2018-08-21T05:48:08.210Z,23.32
2018-08-21T05:49:08.079Z,23.7
2018-08-21T05:50:08.261Z,24.31
2018-08-21T05:51:08.289Z,24.42
2018-08-21T05:52:08.317Z,24.69
2018-08-21T05:53:08.349Z,25.13
2018-08-21T05:54:08.120Z,25.39
2018-08-21T05:55:08.163Z,25.28
2018-08-21T05:56:08.439Z,25.62
2018-08-21T05:57:08.212Z,25.33
2018-08-21T05:58:08.497Z,25.27
2018-08-21T05:59:08.011Z,25.47
2018-08-21T06:00:08.559Z,25.82
2018-08-21T06:01:08.592Z,26.06
2018-08-21T06:02:23.284Z,25.9
2018-08-21T06:03:08.653Z,25.95
2018-08-21T06:04:08.165Z,25.76
2018-08-21T06:06:08.746Z,25.9
2018-08-21T06:07:08.775Z,25.73
2018-08-21T06:08:09.099Z,25.88
2018-08-21T06:09:08.838Z,25.85
2018-08-21T06:10:08.615Z,25.99
2018-08-21T06:11:08.900Z,25.5
2018-08-21T06:12:08.674Z,25.64
2018-08-21T06:13:08.707Z,25.73
2018-08-21T06:14:09.253Z,25.6
2018-08-21T06:16:08.803Z,25.27
2018-08-21T06:17:23.756Z,25
2018-08-21T06:18:09.122Z,25.33
2018-08-21T06:19:08.898Z,25.05
2018-08-21T06:20:08.932Z,24.64
2018-08-21T06:21:09.222Z,25.05
2018-08-21T06:22:09.039Z,25.33
2018-08-21T06:23:09.300Z,25.5
2018-08-21T06:24:09.320Z,25.27
2018-08-21T06:25:09.361Z,25.69
2018-08-21T06:26:24.046Z,25.76
2018-08-21T06:27:09.154Z,26.06
2018-08-21T06:28:09.452Z,25.72
2018-08-21T06:29:09.481Z,26.02
2018-08-21T06:30:09.525Z,25.69
2018-08-21T06:31:09.551Z,25.23
2018-08-21T06:32:09.898Z,25.73
2018-08-21T06:33:09.609Z,26.2
2018-08-21T06:34:09.640Z,26.28
2018-08-21T06:35:09.423Z,26.01
2018-08-21T06:36:09.588Z,26.06
2018-08-21T06:37:09.542Z,26.18
2018-08-21T06:38:09.965Z,26.35
2018-08-21T06:39:09.807Z,26.54
2018-08-21T06:40:09.323Z,26.15
2018-08-21T06:41:09.623Z,26.01
2018-08-21T06:42:09.650Z,26.32
2018-08-21T06:44:09.715Z,25.9
2018-08-21T06:45:10.011Z,25.95
2018-08-21T06:46:09.782Z,26.29
2018-08-21T06:47:10.071Z,26.06
2018-08-21T06:48:09.853Z,26.23
2018-08-21T06:49:24.798Z,26.65
2018-08-21T06:51:10.209Z,26.52
2018-08-21T06:52:10.239Z,26.18
2018-08-21T06:53:10.804Z,26.57
2018-08-21T06:55:10.374Z,26.5
2018-08-21T06:56:10.367Z,26.21
2018-08-21T06:57:10.401Z,26.51
2018-08-21T06:58:10.443Z,26.26
2018-08-21T06:59:10.218Z,25.4
2018-08-21T07:00:10.349Z,25.05
2018-08-21T07:02:10.312Z,25.27
2018-08-21T07:03:10.612Z,25.14
2018-08-21T07:04:10.636Z,25.17
2018-08-21T07:05:25.077Z,24.93
2018-08-21T07:06:10.189Z,25.18
2018-08-21T07:07:25.409Z,26.4
2018-08-21T07:08:10.780Z,26.7
2018-08-21T07:09:10.808Z,27.25
2018-08-21T07:10:10.839Z,27.65
2018-08-21T07:11:10.879Z,27.4
2018-08-21T07:12:10.914Z,27.27
2018-08-21T07:13:10.939Z,26.73
2018-08-21T07:14:10.988Z,26.69
2018-08-21T07:15:11.008Z,27
2018-08-21T07:16:11.041Z,27.03
2018-08-21T07:17:10.561Z,27.39
2018-08-21T07:18:11.109Z,26.75
2018-08-21T07:19:11.195Z,26.06
2018-08-21T07:20:11.181Z,25.57
2018-08-21T07:21:25.618Z,26.09
2018-08-21T07:22:11.369Z,26.69
2018-08-21T07:23:11.285Z,27.04
2018-08-21T07:24:11.321Z,26.87
2018-08-21T07:25:11.351Z,26.8
2018-08-21T07:26:11.381Z,26.88
2018-08-21T07:27:11.418Z,26.94
2018-08-21T07:28:11.454Z,27.72
2018-08-21T07:29:11.555Z,28.58
2018-08-21T07:30:11.529Z,28.83
2018-08-21T07:31:11.306Z,28.66
2018-08-21T07:32:11.590Z,28.64
2018-08-21T07:33:11.624Z,28.36
2018-08-21T07:34:11.403Z,28
2018-08-21T07:35:11.704Z,28.12
2018-08-21T07:36:11.727Z,28.17
2018-08-21T07:38:11.549Z,28.71
2018-08-21T07:39:11.829Z,28.52
2018-08-21T07:40:11.610Z,27.7
2018-08-21T07:41:11.901Z,27.7
2018-08-21T07:42:11.943Z,27.25
2018-08-21T07:43:11.733Z,27.44
2018-08-21T07:44:11.743Z,27.44
2018-08-21T07:46:12.089Z,28.21
2018-08-21T07:47:12.113Z,27.78
2018-08-21T07:48:11.891Z,27.44
2018-08-21T07:49:12.184Z,27.65
2018-08-21T07:50:12.249Z,27.67
2018-08-21T07:51:11.988Z,28.07
2018-08-21T07:52:26.951Z,28.46
2018-08-21T07:53:12.325Z,28.46
2018-08-21T07:54:12.358Z,28
2018-08-21T07:55:12.137Z,27.97
2018-08-21T07:56:12.421Z,28.54
2018-08-21T07:57:12.204Z,28.25
2018-08-21T07:58:12.500Z,28.37
2018-08-21T07:59:12.556Z,28.4
2018-08-21T08:00:12.306Z,28.29
2018-08-21T08:01:12.596Z,27.85
2018-08-21T08:03:12.153Z,28.19
2018-08-21T08:04:12.182Z,27.7
2018-08-21T08:05:12.780Z,27.72
2018-08-21T08:06:12.506Z,27.31
2018-08-21T08:07:12.589Z,27.67
2018-08-21T08:08:12.936Z,27.44
2018-08-21T08:09:12.634Z,27.54
2018-08-21T08:10:12.901Z,27.46
2018-08-21T08:11:12.927Z,26.47
2018-08-21T08:12:12.976Z,26.07
2018-08-21T08:13:13.173Z,25.95
2018-08-21T08:14:13.326Z,25.9
2018-08-21T08:15:12.560Z,26.29
2018-08-21T08:16:12.582Z,26.75
2018-08-21T08:17:13.148Z,26.57
2018-08-21T08:18:13.179Z,26.84
2018-08-21T08:19:13.067Z,26.84
2018-08-21T08:20:13.462Z,26.7
2018-08-21T08:21:13.279Z,27.19
2018-08-21T08:22:13.044Z,27.67
2018-08-21T08:23:13.794Z,27.97
2018-08-21T08:24:28.027Z,28.62
2018-08-21T08:25:13.416Z,28.52
2018-08-21T08:26:13.180Z,29.23
2018-08-21T08:27:13.472Z,29.45
2018-08-21T08:28:13.499Z,29.19
2018-08-21T08:29:13.871Z,28.78
2018-08-21T08:30:28.227Z,28.09
2018-08-21T08:31:13.608Z,27.5
2018-08-21T08:32:14.074Z,27.31
2018-08-21T08:33:13.669Z,27.6
2018-08-21T08:34:13.450Z,27.03
2018-08-21T08:35:28.410Z,26.84
2018-08-21T08:36:13.245Z,27.29
2018-08-21T08:37:13.793Z,27.55
2018-08-21T08:38:13.839Z,26.94
2018-08-21T08:39:13.609Z,26.48
2018-08-21T08:40:28.749Z,27.07
2018-08-21T08:41:13.924Z,27.31
2018-08-21T08:42:28.613Z,27.99
2018-08-21T08:43:14.007Z,28.39
2018-08-21T08:44:14.036Z,28.68
2018-08-21T08:45:14.051Z,28.83
2018-08-21T08:46:14.095Z,28.76
2018-08-21T08:47:14.117Z,28.06
2018-08-21T08:48:28.808Z,27.39
2018-08-21T08:49:14.193Z,27.29
2018-08-21T08:50:14.012Z,27.13
2018-08-21T08:51:14.249Z,27.55
2018-08-21T08:52:14.292Z,27.62
2018-08-21T08:53:14.330Z,27.39
2018-08-21T08:54:14.091Z,27.17
2018-08-21T08:55:14.376Z,27.07
2018-08-21T08:56:29.266Z,27.18
2018-08-21T08:57:14.464Z,26.4
2018-08-21T08:58:14.208Z,25.85
2018-08-21T08:59:14.327Z,25.57
2018-08-21T09:00:14.527Z,25.45
2018-08-21T09:01:14.597Z,25.62
2018-08-21T09:03:14.364Z,25.42
2018-08-21T09:04:14.662Z,25.8
2018-08-21T09:05:15.046Z,25.76
2018-08-21T09:06:14.717Z,25.73
2018-08-21T09:07:29.146Z,26.02
2018-08-21T09:08:14.839Z,26.44
2018-08-21T09:09:14.822Z,26.58
2018-08-21T09:10:14.584Z,26.58
2018-08-21T09:11:14.885Z,26.5
2018-08-21T09:12:29.563Z,26.05
2018-08-21T09:13:14.940Z,25.82
2018-08-21T09:14:14.711Z,26.2
2018-08-21T09:15:14.999Z,26.84
2018-08-21T09:16:15.015Z,27.32
2018-08-21T09:17:14.859Z,27.51
2018-08-21T09:18:15.119Z,27.46
2018-08-21T09:19:15.127Z,27.29
2018-08-21T09:20:29.796Z,26.3
2018-08-21T09:21:15.167Z,25.75
2018-08-21T09:22:15.196Z,25.58
2018-08-21T09:23:15.226Z,25.85
2018-08-21T09:24:15.257Z,26.35
2018-08-21T09:25:15.293Z,27.06
2018-08-21T09:26:15.328Z,27.74
2018-08-21T09:27:29.752Z,28.18
2018-08-21T09:28:15.128Z,28.39
2018-08-21T09:29:30.131Z,28.74
2018-08-21T09:30:15.438Z,29.12
2018-08-21T09:31:15.495Z,29.23
2018-08-21T09:32:15.520Z,28.78
2018-08-21T09:33:15.282Z,28.83
2018-08-21T09:34:15.563Z,28.17
2018-08-21T09:35:30.258Z,27.17
2018-08-21T09:36:15.379Z,27.03
2018-08-21T09:37:15.684Z,26.39
2018-08-21T09:38:16.016Z,25.72
2018-08-21T09:39:15.258Z,25.2
2018-08-21T09:40:30.421Z,25.23
2018-08-21T09:41:15.786Z,24.87
2018-08-21T09:42:15.568Z,24.78
2018-08-21T09:44:15.355Z,24.9
2018-08-21T09:45:15.958Z,25.25
2018-08-21T09:46:30.596Z,25.62
2018-08-21T09:47:15.710Z,25.46
2018-08-21T09:48:15.995Z,25.39
2018-08-21T09:49:16.032Z,25.55
2018-08-21T09:51:16.080Z,27.03
2018-08-21T09:52:16.117Z,27.31
2018-08-21T09:54:15.932Z,27.4
2018-08-21T09:55:16.252Z,27.7
2018-08-21T09:56:15.970Z,27.84
2018-08-21T09:57:16.281Z,28.37
2018-08-21T09:58:16.296Z,28.67
2018-08-21T09:59:30.978Z,28.78
2018-08-21T10:00:16.351Z,29.02
2018-08-21T10:01:16.382Z,28.14
2018-08-21T10:02:16.151Z,28.29
2018-08-21T10:04:16.213Z,27.94
2018-08-21T10:05:16.497Z,28.21
2018-08-21T10:06:16.539Z,28.76
2018-08-21T10:07:16.559Z,29.55
2018-08-21T10:08:31.252Z,29.79
2018-08-21T10:09:31.281Z,30.11
2018-08-21T10:10:16.663Z,29.74
2018-08-21T10:11:16.682Z,28.77
2018-08-21T10:12:16.713Z,29.12
2018-08-21T10:13:16.741Z,29.43
2018-08-21T10:14:16.529Z,29.06
2018-08-21T10:15:31.466Z,28.96
2018-08-21T10:16:16.841Z,28.09
2018-08-21T10:17:16.875Z,27.88
2018-08-21T10:18:16.903Z,28.43
2018-08-21T10:19:16.668Z,28.46
2018-08-21T10:21:16.728Z,27.85
2018-08-21T10:22:16.758Z,27.7
2018-08-21T10:23:16.789Z,27.72
2018-08-21T10:24:31.741Z,27.07
2018-08-21T10:25:16.849Z,27.19
2018-08-21T10:26:17.136Z,27.43
2018-08-21T10:27:16.914Z,27.4
2018-08-21T10:29:17.244Z,27.06
2018-08-21T10:31:31.966Z,27.94
2018-08-21T10:32:17.319Z,27.18
2018-08-21T10:33:17.359Z,27.06
2018-08-21T10:34:17.384Z,27.44
2018-08-21T10:35:17.412Z,27.75
2018-08-21T10:36:17.441Z,27.97
2018-08-21T10:37:17.469Z,28.18
2018-08-21T10:38:17.245Z,28.56
2018-08-21T10:39:17.278Z,28.56
2018-08-21T10:40:17.565Z,28.03
2018-08-21T10:41:17.597Z,27.43
2018-08-21T10:43:17.400Z,26.87
2018-08-21T10:44:17.686Z,26.73
2018-08-21T10:45:17.714Z,26.88
2018-08-21T10:46:17.742Z,26.88
2018-08-21T10:47:32.436Z,26.99
2018-08-21T10:49:17.830Z,26.65
2018-08-21T10:50:17.863Z,26.6
2018-08-21T10:51:17.895Z,26.48
2018-08-21T10:52:17.675Z,26.18
2018-08-21T10:53:17.695Z,26.45
2018-08-21T10:54:17.727Z,26.88
2018-08-21T10:55:18.010Z,26.69
2018-08-21T10:56:18.047Z,26.72
2018-08-21T10:57:17.857Z,26.99
2018-08-21T10:58:17.840Z,27.02
2018-08-21T10:59:17.876Z,26.52
2018-08-21T11:01:18.187Z,25.83
2018-08-21T11:02:32.619Z,25.69
2018-08-21T11:03:17.987Z,25.88
2018-08-21T11:04:18.276Z,25.72
2018-08-21T11:05:18.304Z,25.46
2018-08-21T11:06:18.339Z,25.47
2018-08-21T11:07:18.103Z,25.27
2018-08-21T11:08:17.873Z,24.96
2018-08-21T11:09:18.162Z,24.95
2018-08-21T11:10:18.190Z,25.13
2018-08-21T11:11:18.216Z,25.4
2018-08-21T11:12:18.503Z,25.82
2018-08-21T11:13:18.279Z,25.62
2018-08-21T11:14:18.567Z,25.92
2018-08-21T11:15:18.590Z,26.17
2018-08-21T11:16:18.628Z,26.55
2018-08-21T11:17:18.642Z,26.84
2018-08-21T11:18:33.456Z,26.97
2018-08-21T11:19:18.540Z,26.69
2018-08-21T11:20:18.738Z,26.92
2018-08-21T11:21:18.683Z,27.12
2018-08-21T11:22:18.273Z,27.19
2018-08-21T11:23:18.557Z,27.32
2018-08-21T11:24:19.192Z,26.89
2018-08-21T11:25:18.626Z,26.82
2018-08-21T11:26:18.645Z,26.43
2018-08-21T11:27:18.931Z,26.33
2018-08-21T11:28:18.958Z,26.21
2018-08-21T11:29:18.984Z,26.33
2018-08-21T11:30:19.020Z,26.65
2018-08-21T11:31:19.146Z,26.75
2018-08-21T11:32:19.072Z,26.57
2018-08-21T11:33:19.093Z,26.72
2018-08-21T11:34:33.784Z,26.91
2018-08-21T11:35:19.156Z,27.03
2018-08-21T11:36:19.183Z,27.1
2018-08-21T11:38:19.236Z,26.97
2018-08-21T11:39:19.265Z,27.03
2018-08-21T11:40:19.297Z,27.03
2018-08-21T11:41:19.317Z,27.14
2018-08-21T11:42:19.349Z,26.94
2018-08-21T11:43:19.131Z,27
2018-08-21T11:44:34.088Z,27.14
2018-08-21T11:45:19.441Z,27.12
2018-08-21T11:47:19.232Z,26.95
2018-08-21T11:48:19.431Z,27.24
2018-08-21T11:49:19.287Z,27.39
2018-08-21T11:50:34.233Z,27.31
2018-08-21T11:51:19.086Z,27.18
2018-08-21T11:52:19.630Z,27.02
2018-08-21T11:53:19.653Z,27.1
2018-08-21T11:54:19.431Z,27.22
2018-08-21T11:55:34.378Z,26.63
2018-08-21T11:56:19.500Z,26.32
2018-08-21T11:57:34.431Z,25.85
2018-08-21T11:58:19.797Z,25.69
2018-08-21T11:59:19.564Z,25.92
2018-08-21T12:00:19.593Z,25.99
2018-08-21T12:01:19.623Z,25.99
2018-08-21T12:02:19.648Z,26.09
2018-08-21T12:03:20.089Z,26.35
2018-08-21T12:04:34.633Z,26.43
2018-08-21T12:05:19.990Z,26.5
2018-08-21T12:06:34.421Z,26.32
2018-08-21T12:07:19.794Z,26.37
2018-08-21T12:08:20.078Z,26.55
2018-08-21T12:09:20.101Z,26.72
2018-08-21T12:10:20.140Z,26.87
2018-08-21T12:11:20.157Z,26.88
2018-08-21T12:12:19.925Z,26.94
2018-08-21T12:13:20.209Z,27.06
2018-08-21T12:14:34.927Z,27.17
2018-08-21T12:15:34.927Z,26.54
2018-08-21T12:16:20.291Z,26.33
2018-08-21T12:17:34.982Z,25.61
2018-08-21T12:18:20.355Z,25.79
2018-08-21T12:19:20.384Z,25.9
2018-08-21T12:20:20.409Z,25.75
2018-08-21T12:21:20.438Z,25.72
2018-08-21T12:22:35.119Z,26.05
2018-08-21T12:24:20.515Z,25.98
2018-08-21T12:25:20.287Z,25.8
2018-08-21T12:26:20.569Z,25.85
2018-08-21T12:27:20.338Z,26.01
2018-08-21T12:28:20.364Z,25.94
2018-08-21T12:30:20.681Z,26.21
2018-08-21T12:31:35.368Z,26.17
2018-08-21T12:32:20.773Z,26.17
2018-08-21T12:33:20.762Z,26.17
2018-08-21T12:34:20.707Z,26.05
2018-08-21T12:35:20.822Z,25.46
2018-08-21T12:36:20.847Z,25.33
2018-08-21T12:37:35.533Z,25.7
2018-08-21T12:38:20.683Z,26.01
2018-08-21T12:39:20.935Z,26.2
2018-08-21T12:40:20.960Z,26.28
2018-08-21T12:41:20.987Z,26.21
2018-08-21T12:42:35.673Z,26.01
2018-08-21T12:43:21.031Z,25.92
2018-08-21T12:44:35.566Z,25.72
2018-08-21T12:45:21.086Z,25.67
2018-08-21T12:46:35.777Z,25.85
2018-08-21T12:47:21.158Z,25.91
2018-08-21T12:48:21.170Z,25.65
2018-08-21T12:49:20.940Z,25.6
2018-08-21T12:50:35.931Z,25.98
2018-08-21T12:51:21.256Z,26.17
2018-08-21T12:52:21.283Z,25.9
2018-08-21T12:53:21.309Z,25.47
2018-08-21T12:54:21.334Z,25.88
2018-08-21T12:55:21.361Z,25.88
2018-08-21T12:57:21.414Z,26.02
2018-08-21T12:58:21.440Z,25.62
2018-08-21T12:59:21.213Z,25.3
2018-08-21T13:00:21.640Z,25.14
2018-08-21T13:01:21.006Z,24.9
2018-08-21T13:02:36.211Z,25.2
2018-08-21T13:03:21.578Z,25.38
2018-08-21T13:04:21.348Z,25.72
2018-08-21T13:05:21.373Z,26.05
2018-08-21T13:06:21.413Z,26.01
2018-08-21T13:07:21.789Z,26.02
2018-08-21T13:08:21.709Z,26.06
2018-08-21T13:09:36.401Z,25.79
2018-08-21T13:10:21.616Z,25.8
2018-08-21T13:11:21.801Z,25.58
2018-08-21T13:12:21.824Z,25.65
2018-08-21T13:13:21.590Z,25.75
2018-08-21T13:14:21.879Z,25.76
2018-08-21T13:15:21.647Z,25.69
2018-08-21T13:16:21.670Z,25.76
2018-08-21T13:17:21.957Z,25.91
2018-08-21T13:18:21.983Z,26.01
2018-08-21T13:19:22.012Z,25.98
2018-08-21T13:20:22.036Z,25.72
2018-08-21T13:21:22.068Z,25.36
2018-08-21T13:22:22.090Z,24.96
2018-08-21T13:23:22.133Z,24.57
2018-08-21T13:24:21.886Z,24.43
2018-08-21T13:25:36.832Z,24.47
2018-08-21T13:26:22.202Z,24.64
2018-08-21T13:27:21.965Z,24.71
2018-08-21T13:28:21.998Z,24.91
2018-08-21T13:29:22.179Z,25.08
2018-08-21T13:30:22.326Z,25.18
2018-08-21T13:31:22.330Z,25.25
2018-08-21T13:32:22.357Z,25.17
2018-08-21T13:33:22.127Z,25.24
2018-08-21T13:34:22.412Z,25.21
2018-08-21T13:35:37.099Z,25.33
2018-08-21T13:36:22.783Z,25.25
2018-08-21T13:37:22.234Z,25.4